Terminal Aerodrome Forecast
Issued by NWS

Home | Current Version | Previous Version | Text Only | Print | Product List | Glossary On
Versions: 1 2 3 4 5 6 7 8 9 10 11 12 13 14 15 16 17 18 19 20 21 22 23 24 25 26 27 28 29 30 31 32 33 34 35 36
000
FTUS43 KGRB 080520
TAFRHI
TAF
KRHI 080520Z 0806/0906 22013G26KT P6SM BKN040 WS018/24055KT
     FM081000 23012G23KT P6SM BKN018 WS018/25040KT
     FM081300 23010G19KT P6SM OVC008
     FM081500 25009G15KT P6SM -FZDZ BKN004
     FM090100 03004KT P6SM -FZDZ OVC007
     FM090400 05005KT P6SM -FZDZ OVC004=

USA.gov is the U.S. government's official web portal to all federal, state and local government web resources and services.